sensor_id;sensor_type;location;lat;lon;timestamp;pressure;altitude;pressure_sealevel;temperature;humidity
72855;BME280;60991;51.278;22.550;2022-09-29T00:00:55;97694.44;;;12.61;74.24
72855;BME280;60991;51.278;22.550;2022-09-29T00:02:25;97694.34;;;12.66;73.60
72855;BME280;60991;51.278;22.550;2022-09-29T00:03:56;97688.91;;;12.58;74.14
72855;BME280;60991;51.278;22.550;2022-09-29T00:05:26;97687.97;;;12.48;74.43
72855;BME280;60991;51.278;22.550;2022-09-29T00:06:56;97684.31;;;12.44;74.79
72855;BME280;60991;51.278;22.550;2022-09-29T00:08:29;97686.38;;;12.47;74.30
72855;BME280;60991;51.278;22.550;2022-09-29T00:09:59;97681.84;;;12.48;74.78
72855;BME280;60991;51.278;22.550;2022-09-29T00:11:29;97679.38;;;12.38;74.83
72855;BME280;60991;51.278;22.550;2022-09-29T00:13:00;97677.00;;;12.36;74.82
72855;BME280;60991;51.278;22.550;2022-09-29T00:14:30;97681.25;;;12.37;74.85
72855;BME280;60991;51.278;22.550;2022-09-29T00:16:01;97672.78;;;12.49;74.53
72855;BME280;60991;51.278;22.550;2022-09-29T00:17:32;97665.03;;;12.53;73.90
72855;BME280;60991;51.278;22.550;2022-09-29T00:19:02;97670.66;;;12.65;73.06
72855;BME280;60991;51.278;22.550;2022-09-29T00:20:32;97665.25;;;12.70;72.97
72855;BME280;60991;51.278;22.550;2022-09-29T00:22:02;97669.59;;;12.66;73.00
72855;BME280;60991;51.278;22.550;2022-09-29T00:23:33;97666.09;;;12.52;73.42
72855;BME280;60991;51.278;22.550;2022-09-29T00:25:04;97663.38;;;12.57;73.37
72855;BME280;60991;51.278;22.550;2022-09-29T00:26:34;97655.97;;;12.67;72.56
72855;BME280;60991;51.278;22.550;2022-09-29T00:28:05;97654.81;;;12.60;72.96
72855;BME280;60991;51.278;22.550;2022-09-29T00:29:35;97661.22;;;12.72;72.53
72855;BME280;60991;51.278;22.550;2022-09-29T00:31:07;97662.22;;;12.76;72.14
72855;BME280;60991;51.278;22.550;2022-09-29T00:32:38;97665.19;;;12.75;71.98
72855;BME280;60991;51.278;22.550;2022-09-29T00:34:09;97670.50;;;12.75;72.00
72855;BME280;60991;51.278;22.550;2022-09-29T00:35:39;97670.88;;;12.68;72.23
72855;BME280;60991;51.278;22.550;2022-09-29T00:37:10;97673.97;;;12.75;72.25
72855;BME280;60991;51.278;22.550;2022-09-29T00:38:41;97682.63;;;12.81;71.71
72855;BME280;60991;51.278;22.550;2022-09-29T00:40:11;97679.19;;;12.80;71.86
72855;BME280;60991;51.278;22.550;2022-09-29T00:41:42;97671.25;;;12.62;72.48
72855;BME280;60991;51.278;22.550;2022-09-29T00:43:38;97681.72;;;12.58;72.82
72855;BME280;60991;51.278;22.550;2022-09-29T00:45:17;97680.63;;;12.59;72.91
72855;BME280;60991;51.278;22.550;2022-09-29T00:46:50;97693.16;;;12.59;72.93
72855;BME280;60991;51.278;22.550;2022-09-29T00:48:29;97686.31;;;12.53;72.95
72855;BME280;60991;51.278;22.550;2022-09-29T00:50:08;97675.75;;;12.47;73.03
72855;BME280;60991;51.278;22.550;2022-09-29T00:51:46;97682.56;;;12.54;72.87
72855;BME280;60991;51.278;22.550;2022-09-29T00:53:19;97675.75;;;12.47;73.60
72855;BME280;60991;51.278;22.550;2022-09-29T00:54:55;97676.44;;;12.39;73.75
72855;BME280;60991;51.278;22.550;2022-09-29T00:56:28;97674.63;;;12.35;73.86
72855;BME280;60991;51.278;22.550;2022-09-29T00:58:08;97670.97;;;12.31;73.77
72855;BME280;60991;51.278;22.550;2022-09-29T01:00:09;97662.63;;;12.37;73.92
72855;BME280;60991;51.278;22.550;2022-09-29T01:01:40;97666.69;;;12.48;73.29
72855;BME280;60991;51.278;22.550;2022-09-29T01:03:14;97662.44;;;12.47;73.38
72855;BME280;60991;51.278;22.550;2022-09-29T01:04:47;97675.03;;;12.61;72.59
72855;BME280;60991;51.278;22.550;2022-09-29T01:06:32;97678.25;;;12.58;73.09
72855;BME280;60991;51.278;22.550;2022-09-29T01:08:13;97670.78;;;12.60;72.84
72855;BME280;60991;51.278;22.550;2022-09-29T01:09:46;97674.09;;;12.52;72.88
72855;BME280;60991;51.278;22.550;2022-09-29T01:11:19;97674.09;;;12.52;72.91
72855;BME280;60991;51.278;22.550;2022-09-29T01:12:50;97676.81;;;12.46;72.96
72855;BME280;60991;51.278;22.550;2022-09-29T01:14:20;97680.97;;;12.39;73.36
72855;BME280;60991;51.278;22.550;2022-09-29T01:15:51;97677.00;;;12.36;73.51
72855;BME280;60991;51.278;22.550;2022-09-29T01:17:22;97679.09;;;12.39;73.52
72855;BME280;60991;51.278;22.550;2022-09-29T01:18:52;97683.72;;;12.47;73.21
72855;BME280;60991;51.278;22.550;2022-09-29T01:20:23;97684.13;;;12.41;73.50
72855;BME280;60991;51.278;22.550;2022-09-29T01:27:18;97686.41;;;12.29;74.07
72855;BME280;60991;51.278;22.550;2022-09-29T01:28:57;97688.72;;;12.35;73.94
72855;BME280;60991;51.278;22.550;2022-09-29T01:32:46;97692.19;;;12.36;74.06
72855;BME280;60991;51.278;22.550;2022-09-29T01:39:33;97693.19;;;12.40;73.68
72855;BME280;60991;51.278;22.550;2022-09-29T01:41:13;97687.56;;;12.41;73.64
72855;BME280;60991;51.278;22.550;2022-09-29T01:43:02;97693.59;;;12.47;73.68
72855;BME280;60991;51.278;22.550;2022-09-29T01:44:55;97697.47;;;12.55;72.86
72855;BME280;60991;51.278;22.550;2022-09-29T01:46:49;97699.13;;;12.51;72.99
72855;BME280;60991;51.278;22.550;2022-09-29T01:48:24;97698.03;;;12.52;73.15
72855;BME280;60991;51.278;22.550;2022-09-29T01:50:02;97703.38;;;12.52;72.92
72855;BME280;60991;51.278;22.550;2022-09-29T01:51:53;97703.66;;;12.50;73.18
72855;BME280;60991;51.278;22.550;2022-09-29T01:53:28;97710.06;;;12.49;73.29
72855;BME280;60991;51.278;22.550;2022-09-29T01:55:11;97715.09;;;12.51;73.05
72855;BME280;60991;51.278;22.550;2022-09-29T01:56:47;97711.63;;;12.50;73.57
72855;BME280;60991;51.278;22.550;2022-09-29T01:58:33;97707.78;;;12.42;73.50
72855;BME280;60991;51.278;22.550;2022-09-29T02:00:08;97714.38;;;12.45;73.57
72855;BME280;60991;51.278;22.550;2022-09-29T02:01:41;97717.25;;;12.48;73.57
72855;BME280;60991;51.278;22.550;2022-09-29T02:03:28;97717.53;;;12.47;73.63
72855;BME280;60991;51.278;22.550;2022-09-29T02:05:03;97721.41;;;12.55;73.27
72855;BME280;60991;51.278;22.550;2022-09-29T02:06:43;97720.28;;;12.61;73.25
72855;BME280;60991;51.278;22.550;2022-09-29T02:08:27;97723.88;;;12.51;73.50
72855;BME280;60991;51.278;22.550;2022-09-29T02:10:03;97724.88;;;12.55;73.68
72855;BME280;60991;51.278;22.550;2022-09-29T02:11:39;97718.25;;;12.53;73.31
72855;BME280;60991;51.278;22.550;2022-09-29T02:13:12;97728.63;;;12.54;73.34
72855;BME280;60991;51.278;22.550;2022-09-29T02:14:46;97720.84;;;12.58;73.47
72855;BME280;60991;51.278;22.550;2022-09-29T02:16:20;97726.88;;;12.44;73.57
72855;BME280;60991;51.278;22.550;2022-09-29T02:17:53;97727.91;;;12.48;73.17
72855;BME280;60991;51.278;22.550;2022-09-29T02:19:30;97727.69;;;12.45;73.82
72855;BME280;60991;51.278;22.550;2022-09-29T02:21:03;97738.19;;;12.55;73.69
72855;BME280;60991;51.278;22.550;2022-09-29T02:22:34;97735.66;;;12.45;74.11
72855;BME280;60991;51.278;22.550;2022-09-29T02:24:04;97738.31;;;12.45;73.97
72855;BME280;60991;51.278;22.550;2022-09-29T02:25:37;97736.84;;;12.39;74.14
72855;BME280;60991;51.278;22.550;2022-09-29T02:27:10;97743.53;;;12.36;74.39
72855;BME280;60991;51.278;22.550;2022-09-29T02:28:41;97738.41;;;12.40;74.37
72855;BME280;60991;51.278;22.550;2022-09-29T02:30:12;97736.13;;;12.33;74.77
72855;BME280;60991;51.278;22.550;2022-09-29T02:31:43;97730.56;;;12.30;74.48
72855;BME280;60991;51.278;22.550;2022-09-29T02:33:21;97737.25;;;12.27;75.11
72855;BME280;60991;51.278;22.550;2022-09-29T02:34:52;97727.13;;;12.29;74.89
72855;BME280;60991;51.278;22.550;2022-09-29T02:38:10;97729.38;;;12.22;75.47
72855;BME280;60991;51.278;22.550;2022-09-29T02:54:28;97721.56;;;12.26;75.34
72855;BME280;60991;51.278;22.550;2022-09-29T02:56:13;97735.53;;;12.18;75.39
72855;BME280;60991;51.278;22.550;2022-09-29T02:58:11;97744.94;;;12.29;74.97
72855;BME280;60991;51.278;22.550;2022-09-29T02:59:50;97744.72;;;12.25;74.98
72855;BME280;60991;51.278;22.550;2022-09-29T03:01:22;97756.47;;;12.24;75.38
72855;BME280;60991;51.278;22.550;2022-09-29T03:02:53;97754.28;;;12.26;75.21
72855;BME280;60991;51.278;22.550;2022-09-29T03:04:27;97751.91;;;12.25;75.71
72855;BME280;60991;51.278;22.550;2022-09-29T03:05:57;97757.97;;;12.30;75.46
72855;BME280;60991;51.278;22.550;2022-09-29T03:07:28;97756.69;;;12.28;75.63
72855;BME280;60991;51.278;22.550;2022-09-29T03:08:58;97749.69;;;12.32;75.24
72855;BME280;60991;51.278;22.550;2022-09-29T03:10:28;97754.22;;;12.31;74.91
72855;BME280;60991;51.278;22.550;2022-09-29T03:11:58;97756.03;;;12.36;74.95
72855;BME280;60991;51.278;22.550;2022-09-29T03:13:28;97756.16;;;12.26;75.54
72855;BME280;60991;51.278;22.550;2022-09-29T03:14:59;97745.63;;;12.39;74.91
72855;BME280;60991;51.278;22.550;2022-09-29T03:16:29;97751.91;;;12.25;75.13
72855;BME280;60991;51.278;22.550;2022-09-29T03:17:59;97746.91;;;12.23;75.68
72855;BME280;60991;51.278;22.550;2022-09-29T03:19:29;97750.66;;;12.22;75.59
72855;BME280;60991;51.278;22.550;2022-09-29T03:21:00;97753.81;;;12.24;75.89
72855;BME280;60991;51.278;22.550;2022-09-29T03:22:30;97754.59;;;12.25;75.93
72855;BME280;60991;51.278;22.550;2022-09-29T03:24:00;97756.16;;;12.26;75.43
72855;BME280;60991;51.278;22.550;2022-09-29T03:25:31;97752.66;;;12.30;75.32
72855;BME280;60991;51.278;22.550;2022-09-29T03:27:01;97753.50;;;12.26;75.51
72855;BME280;60991;51.278;22.550;2022-09-29T03:28:31;97752.88;;;12.15;76.28
72855;BME280;60991;51.278;22.550;2022-09-29T03:30:02;97758.69;;;12.17;76.00
72855;BME280;60991;51.278;22.550;2022-09-29T03:31:32;97765.22;;;12.25;76.12
72855;BME280;60991;51.278;22.550;2022-09-29T03:33:02;97762.28;;;12.26;75.86
72855;BME280;60991;51.278;22.550;2022-09-29T03:34:33;97762.88;;;12.23;76.18
72855;BME280;60991;51.278;22.550;2022-09-29T03:36:05;97766.91;;;12.21;76.24
72855;BME280;60991;51.278;22.550;2022-09-29T03:37:35;97764.25;;;12.21;76.29
72855;BME280;60991;51.278;22.550;2022-09-29T03:39:06;97763.44;;;12.20;76.16
72855;BME280;60991;51.278;22.550;2022-09-29T03:40:37;97759.72;;;12.21;76.15
72855;BME280;60991;51.278;22.550;2022-09-29T03:42:07;97759.50;;;12.18;75.94
72855;BME280;60991;51.278;22.550;2022-09-29T03:43:37;97759.78;;;12.16;76.26
72855;BME280;60991;51.278;22.550;2022-09-29T03:45:08;97760.56;;;12.17;76.47
72855;BME280;60991;51.278;22.550;2022-09-29T03:46:38;97764.47;;;12.24;75.73
72855;BME280;60991;51.278;22.550;2022-09-29T03:48:08;97767.75;;;12.16;76.03
72855;BME280;60991;51.278;22.550;2022-09-29T03:49:38;97773.66;;;12.13;76.56
72855;BME280;60991;51.278;22.550;2022-09-29T03:51:08;97766.41;;;12.19;75.97
72855;BME280;60991;51.278;22.550;2022-09-29T03:52:39;97773.06;;;12.16;76.04
72855;BME280;60991;51.278;22.550;2022-09-29T03:54:09;97766.97;;;12.16;76.62
72855;BME280;60991;51.278;22.550;2022-09-29T03:55:40;97770.13;;;12.18;76.25
72855;BME280;60991;51.278;22.550;2022-09-29T03:57:10;97764.31;;;12.16;76.33
72855;BME280;60991;51.278;22.550;2022-09-29T03:58:41;97767.97;;;12.20;76.03
72855;BME280;60991;51.278;22.550;2022-09-29T04:00:11;97763.22;;;12.17;76.37
72855;BME280;60991;51.278;22.550;2022-09-29T04:01:42;97760.84;;;12.15;76.16
72855;BME280;60991;51.278;22.550;2022-09-29T04:03:12;97764.88;;;12.12;76.43
72855;BME280;60991;51.278;22.550;2022-09-29T04:04:42;97760.56;;;12.17;76.42
72855;BME280;60991;51.278;22.550;2022-09-29T04:06:13;97764.00;;;12.17;76.13
72855;BME280;60991;51.278;22.550;2022-09-29T04:07:43;97757.56;;;12.23;76.22
72855;BME280;60991;51.278;22.550;2022-09-29T04:09:13;97769.84;;;12.19;76.10
72855;BME280;60991;51.278;22.550;2022-09-29T04:10:45;97766.69;;;12.17;76.54
72855;BME280;60991;51.278;22.550;2022-09-29T04:12:15;97769.91;;;12.14;76.29
72855;BME280;60991;51.278;22.550;2022-09-29T04:13:46;97770.97;;;12.13;76.34
72855;BME280;60991;51.278;22.550;2022-09-29T04:15:16;97776.81;;;12.15;76.74
72855;BME280;60991;51.278;22.550;2022-09-29T04:16:46;97775.16;;;12.19;76.02
72855;BME280;60991;51.278;22.550;2022-09-29T04:18:16;97774.44;;;12.13;76.41
72855;BME280;60991;51.278;22.550;2022-09-29T04:19:46;97783.44;;;12.18;76.08
72855;BME280;60991;51.278;22.550;2022-09-29T04:21:17;97784.44;;;12.22;76.14
72855;BME280;60991;51.278;22.550;2022-09-29T04:22:47;97791.41;;;12.18;76.35
72855;BME280;60991;51.278;22.550;2022-09-29T04:24:17;97789.16;;;12.25;76.13
72855;BME280;60991;51.278;22.550;2022-09-29T04:25:47;97794.81;;;12.23;76.12
72855;BME280;60991;51.278;22.550;2022-09-29T04:27:17;97798.81;;;12.21;76.18
72855;BME280;60991;51.278;22.550;2022-09-29T04:28:48;97787.66;;;12.19;76.22
72855;BME280;60991;51.278;22.550;2022-09-29T04:30:18;97790.63;;;12.17;75.89
72855;BME280;60991;51.278;22.550;2022-09-29T04:31:48;97790.91;;;12.16;76.10
72855;BME280;60991;51.278;22.550;2022-09-29T04:33:18;97796.50;;;12.14;75.98
72855;BME280;60991;51.278;22.550;2022-09-29T04:34:49;97792.81;;;12.10;76.41
72855;BME280;60991;51.278;22.550;2022-09-29T04:36:19;97794.81;;;12.23;75.95
72855;BME280;60991;51.278;22.550;2022-09-29T04:37:54;97803.41;;;12.15;76.28
72855;BME280;60991;51.278;22.550;2022-09-29T04:39:24;97799.22;;;12.09;76.71
72855;BME280;60991;51.278;22.550;2022-09-29T04:40:54;97796.38;;;12.05;76.59
72855;BME280;60991;51.278;22.550;2022-09-29T04:42:24;97796.28;;;12.10;76.58
72855;BME280;60991;51.278;22.550;2022-09-29T04:43:55;97794.34;;;12.16;76.38
72855;BME280;60991;51.278;22.550;2022-09-29T04:45:25;97799.34;;;12.23;75.65
72855;BME280;60991;51.278;22.550;2022-09-29T04:46:55;97797.94;;;12.25;75.36
72855;BME280;60991;51.278;22.550;2022-09-29T04:48:25;97800.19;;;12.18;75.61
72855;BME280;60991;51.278;22.550;2022-09-29T04:49:55;97804.19;;;12.16;75.89
72855;BME280;60991;51.278;22.550;2022-09-29T04:51:26;97809.69;;;12.24;75.62
72855;BME280;60991;51.278;22.550;2022-09-29T04:52:56;97802.47;;;12.25;75.33
72855;BME280;60991;51.278;22.550;2022-09-29T04:54:31;97804.94;;;12.21;74.98
72855;BME280;60991;51.278;22.550;2022-09-29T04:56:06;97808.28;;;12.08;76.17
72855;BME280;60991;51.278;22.550;2022-09-29T04:57:41;97802.97;;;12.08;76.08
72855;BME280;60991;51.278;22.550;2022-09-29T04:59:11;97803.69;;;12.13;75.85
72855;BME280;60991;51.278;22.550;2022-09-29T05:00:42;97798.16;;;12.10;75.82
72855;BME280;60991;51.278;22.550;2022-09-29T05:02:12;97798.72;;;12.07;76.11
72855;BME280;60991;51.278;22.550;2022-09-29T05:03:42;97799.50;;;12.07;76.37
72855;BME280;60991;51.278;22.550;2022-09-29T05:05:12;97808.78;;;12.10;76.15
72855;BME280;60991;51.278;22.550;2022-09-29T05:06:42;97814.38;;;12.08;76.08
72855;BME280;60991;51.278;22.550;2022-09-29T05:08:13;97810.09;;;12.12;75.87
72855;BME280;60991;51.278;22.550;2022-09-29T05:09:43;97808.50;;;12.11;76.38
72855;BME280;60991;51.278;22.550;2022-09-29T05:11:13;97806.41;;;12.08;76.19
72855;BME280;60991;51.278;22.550;2022-09-29T05:12:49;97813.03;;;12.11;76.11
72855;BME280;60991;51.278;22.550;2022-09-29T05:14:20;97807.38;;;12.18;75.95
72855;BME280;60991;51.278;22.550;2022-09-29T05:15:54;97812.34;;;12.24;75.64
72855;BME280;60991;51.278;22.550;2022-09-29T05:17:24;97802.41;;;12.11;76.07
72855;BME280;60991;51.278;22.550;2022-09-29T05:18:55;97810.47;;;12.06;76.26
72855;BME280;60991;51.278;22.550;2022-09-29T05:20:25;97805.34;;;12.09;76.02
72855;BME280;60991;51.278;22.550;2022-09-29T05:21:55;97803.75;;;12.08;76.66
72855;BME280;60991;51.278;22.550;2022-09-29T05:23:27;97801.69;;;12.05;76.43
72855;BME280;60991;51.278;22.550;2022-09-29T05:24:57;97809.06;;;12.08;76.62
72855;BME280;60991;51.278;22.550;2022-09-29T05:26:27;97806.91;;;12.10;76.27
72855;BME280;60991;51.278;22.550;2022-09-29T05:27:57;97809.88;;;12.09;76.77
72855;BME280;60991;51.278;22.550;2022-09-29T05:29:28;97805.44;;;12.23;75.67
72855;BME280;60991;51.278;22.550;2022-09-29T05:31:02;97808.09;;;12.23;75.47
72855;BME280;60991;51.278;22.550;2022-09-29T05:32:33;97807.78;;;12.25;75.96
72855;BME280;60991;51.278;22.550;2022-09-29T05:34:04;97809.00;;;12.13;76.22
72855;BME280;60991;51.278;22.550;2022-09-29T05:35:34;97807.59;;;12.21;75.85
72855;BME280;60991;51.278;22.550;2022-09-29T05:37:04;97809.47;;;12.21;76.05
72855;BME280;60991;51.278;22.550;2022-09-29T05:38:35;97813.19;;;12.20;75.91
72855;BME280;60991;51.278;22.550;2022-09-29T05:40:06;97810.53;;;12.20;76.00
72855;BME280;60991;51.278;22.550;2022-09-29T05:41:37;97815.06;;;12.19;76.48
72855;BME280;60991;51.278;22.550;2022-09-29T05:43:07;97815.22;;;12.28;75.87
72855;BME280;60991;51.278;22.550;2022-09-29T05:44:37;97814.69;;;12.26;76.10
72855;BME280;60991;51.278;22.550;2022-09-29T05:46:09;97812.78;;;12.31;75.56
72855;BME280;60991;51.278;22.550;2022-09-29T05:47:43;97811.19;;;12.30;75.53
72855;BME280;60991;51.278;22.550;2022-09-29T05:49:14;97819.03;;;12.22;76.38
72855;BME280;60991;51.278;22.550;2022-09-29T05:50:44;97807.66;;;12.16;76.47
72855;BME280;60991;51.278;22.550;2022-09-29T05:52:14;97808.97;;;12.19;76.67
72855;BME280;60991;51.278;22.550;2022-09-29T05:53:44;97809.31;;;12.31;75.67
72855;BME280;60991;51.278;22.550;2022-09-29T05:55:15;97808.75;;;12.34;75.42
72855;BME280;60991;51.278;22.550;2022-09-29T05:56:45;97809.25;;;12.36;75.34
72855;BME280;60991;51.278;22.550;2022-09-29T05:58:15;97805.44;;;12.23;75.98
72855;BME280;60991;51.278;22.550;2022-09-29T05:59:45;97808.31;;;12.27;75.93
72855;BME280;60991;51.278;22.550;2022-09-29T06:01:19;97809.19;;;12.22;75.93
72855;BME280;60991;51.278;22.550;2022-09-29T06:02:50;97814.28;;;12.19;76.27
72855;BME280;60991;51.278;22.550;2022-09-29T06:04:20;97813.19;;;12.20;76.07
72855;BME280;60991;51.278;22.550;2022-09-29T06:05:50;97808.59;;;12.25;76.33
72855;BME280;60991;51.278;22.550;2022-09-29T06:07:20;97816.28;;;12.27;76.28
72855;BME280;60991;51.278;22.550;2022-09-29T06:08:51;97819.31;;;12.20;76.19
72855;BME280;60991;51.278;22.550;2022-09-29T06:10:21;97823.34;;;12.18;77.02
72855;BME280;60991;51.278;22.550;2022-09-29T06:11:52;97825.66;;;12.24;76.59
72855;BME280;60991;51.278;22.550;2022-09-29T06:13:22;97826.81;;;12.37;75.34
72855;BME280;60991;51.278;22.550;2022-09-29T06:14:52;97825.72;;;12.38;75.36
72855;BME280;60991;51.278;22.550;2022-09-29T06:16:24;97823.63;;;12.35;75.65
72855;BME280;60991;51.278;22.550;2022-09-29T06:17:59;97823.97;;;12.28;75.80
72855;BME280;60991;51.278;22.550;2022-09-29T06:19:29;97833.13;;;12.22;76.17
72855;BME280;60991;51.278;22.550;2022-09-29T06:21:04;97832.06;;;12.23;76.37
72855;BME280;60991;51.278;22.550;2022-09-29T06:22:34;97834.91;;;12.27;76.49
72855;BME280;60991;51.278;22.550;2022-09-29T06:24:05;97838.88;;;12.29;76.21
72855;BME280;60991;51.278;22.550;2022-09-29T06:25:35;97842.50;;;12.38;76.14
72855;BME280;60991;51.278;22.550;2022-09-29T06:27:05;97837.44;;;12.37;76.50
72855;BME280;60991;51.278;22.550;2022-09-29T06:28:35;97837.16;;;12.38;76.10
72855;BME280;60991;51.278;22.550;2022-09-29T06:30:06;97839.25;;;12.41;75.77
72855;BME280;60991;51.278;22.550;2022-09-29T06:31:37;97846.22;;;12.37;75.83
72855;BME280;60991;51.278;22.550;2022-09-29T06:33:07;97847.31;;;12.36;76.43
72855;BME280;60991;51.278;22.550;2022-09-29T06:34:37;97853.34;;;12.42;76.26
72855;BME280;60991;51.278;22.550;2022-09-29T06:36:17;97849.81;;;12.46;75.55
72855;BME280;60991;51.278;22.550;2022-09-29T06:37:47;97854.56;;;12.49;75.38
72855;BME280;60991;51.278;22.550;2022-09-29T06:39:18;97862.56;;;12.49;75.87
72855;BME280;60991;51.278;22.550;2022-09-29T06:40:48;97859.88;;;12.49;75.27
72855;BME280;60991;51.278;22.550;2022-09-29T06:42:18;97853.28;;;12.47;75.28
72855;BME280;60991;51.278;22.550;2022-09-29T06:43:48;97854.84;;;12.48;74.94
72855;BME280;60991;51.278;22.550;2022-09-29T06:45:19;97863.41;;;12.45;74.81
72855;BME280;60991;51.278;22.550;2022-09-29T06:46:49;97867.78;;;12.36;75.45
72855;BME280;60991;51.278;22.550;2022-09-29T06:48:20;97881.94;;;12.31;75.65
72855;BME280;60991;51.278;22.550;2022-09-29T06:49:50;97879.63;;;12.25;76.33
72855;BME280;60991;51.278;22.550;2022-09-29T06:51:22;97888.28;;;12.35;75.58
72855;BME280;60991;51.278;22.550;2022-09-29T06:52:53;97877.31;;;12.42;74.80
72855;BME280;60991;51.278;22.550;2022-09-29T06:54:23;97884.78;;;12.40;74.79
72855;BME280;60991;51.278;22.550;2022-09-29T06:55:54;97883.81;;;12.31;75.54
72855;BME280;60991;51.278;22.550;2022-09-29T06:57:25;97889.94;;;12.31;75.22
72855;BME280;60991;51.278;22.550;2022-09-29T06:58:55;97893.03;;;12.38;75.03
72855;BME280;60991;51.278;22.550;2022-09-29T07:00:25;97892.94;;;12.25;75.71
72855;BME280;60991;51.278;22.550;2022-09-29T07:01:56;97893.44;;;12.27;75.74
72855;BME280;60991;51.278;22.550;2022-09-29T07:03:27;97898.66;;;12.13;75.97
72855;BME280;60991;51.278;22.550;2022-09-29T07:04:57;97897.75;;;12.23;75.96
72855;BME280;60991;51.278;22.550;2022-09-29T07:06:28;97894.81;;;12.24;76.09
72855;BME280;60991;51.278;22.550;2022-09-29T07:07:59;97896.78;;;12.13;76.36
72855;BME280;60991;51.278;22.550;2022-09-29T07:09:29;97894.13;;;12.13;76.14
72855;BME280;60991;51.278;22.550;2022-09-29T07:10:59;97901.28;;;12.18;76.20
72855;BME280;60991;51.278;22.550;2022-09-29T07:12:30;97904.94;;;12.22;75.28
72855;BME280;60991;51.278;22.550;2022-09-29T07:14:00;97901.38;;;12.32;75.20
72855;BME280;60991;51.278;22.550;2022-09-29T07:15:30;97907.75;;;12.31;73.21
72855;BME280;60991;51.278;22.550;2022-09-29T07:17:01;97906.47;;;12.28;73.07
72855;BME280;60991;51.278;22.550;2022-09-29T07:18:35;97902.28;;;12.22;73.90
72855;BME280;60991;51.278;22.550;2022-09-29T07:20:06;97904.78;;;12.13;73.81
72855;BME280;60991;51.278;22.550;2022-09-29T07:21:36;97913.09;;;12.07;73.88
72855;BME280;60991;51.278;22.550;2022-09-29T07:23:06;97909.44;;;12.03;74.26
72855;BME280;60991;51.278;22.550;2022-09-29T07:24:37;97918.63;;;12.10;73.68
72855;BME280;60991;51.278;22.550;2022-09-29T07:26:07;97918.19;;;12.03;74.48
72855;BME280;60991;51.278;22.550;2022-09-29T07:27:37;97918.13;;;12.08;73.90
72855;BME280;60991;51.278;22.550;2022-09-29T07:29:08;97919.91;;;12.18;73.16
72855;BME280;60991;51.278;22.550;2022-09-29T07:30:38;97918.88;;;12.14;73.46
72855;BME280;60991;51.278;22.550;2022-09-29T07:32:08;97916.72;;;12.16;73.45
72855;BME280;60991;51.278;22.550;2022-09-29T07:33:38;97918.25;;;12.22;73.33
72855;BME280;60991;51.278;22.550;2022-09-29T07:35:09;97920.50;;;12.34;72.95
72855;BME280;60991;51.278;22.550;2022-09-29T07:36:39;97906.19;;;12.30;72.84
72855;BME280;60991;51.278;22.550;2022-09-29T07:38:09;97913.03;;;12.36;72.28
72855;BME280;60991;51.278;22.550;2022-09-29T07:39:39;97921.53;;;12.38;71.68
72855;BME280;60991;51.278;22.550;2022-09-29T07:41:11;97924.53;;;12.31;71.55
72855;BME280;60991;51.278;22.550;2022-09-29T07:42:42;97921.06;;;12.31;71.75
72855;BME280;60991;51.278;22.550;2022-09-29T07:44:12;97925.97;;;12.24;72.16
72855;BME280;60991;51.278;22.550;2022-09-29T07:45:49;97922.84;;;12.17;72.58
72855;BME280;60991;51.278;22.550;2022-09-29T07:47:20;97932.13;;;12.19;72.83
72855;BME280;60991;51.278;22.550;2022-09-29T07:48:50;97928.72;;;12.13;73.30
72855;BME280;60991;51.278;22.550;2022-09-29T07:50:20;97926.56;;;12.16;73.39
72855;BME280;60991;51.278;22.550;2022-09-29T07:51:50;97927.75;;;12.28;72.59
72855;BME280;60991;51.278;22.550;2022-09-29T07:53:21;97929.56;;;12.33;72.24
72855;BME280;60991;51.278;22.550;2022-09-29T07:54:51;97927.97;;;12.32;72.22
72855;BME280;60991;51.278;22.550;2022-09-29T07:56:22;97931.88;;;12.39;70.64
72855;BME280;60991;51.278;22.550;2022-09-29T07:57:52;97926.34;;;12.36;70.92
72855;BME280;60991;51.278;22.550;2022-09-29T07:59:22;97932.72;;;12.35;70.76
72855;BME280;60991;51.278;22.550;2022-09-29T08:00:54;97936.47;;;12.34;70.93
72855;BME280;60991;51.278;22.550;2022-09-29T08:02:24;97933.25;;;12.37;70.66
72855;BME280;60991;51.278;22.550;2022-09-29T08:03:55;97941.75;;;12.39;70.15
72855;BME280;60991;51.278;22.550;2022-09-29T08:05:25;97948.38;;;12.41;69.97
72855;BME280;60991;51.278;22.550;2022-09-29T08:06:55;97945.84;;;12.26;69.75
72855;BME280;60991;51.278;22.550;2022-09-29T08:08:25;97948.88;;;12.20;70.41
72855;BME280;60991;51.278;22.550;2022-09-29T08:09:56;97946.25;;;12.14;70.73
72855;BME280;60991;51.278;22.550;2022-09-29T08:11:26;97947.66;;;12.07;71.17
72855;BME280;60991;51.278;22.550;2022-09-29T08:12:56;97935.63;;;12.14;70.73
72855;BME280;60991;51.278;22.550;2022-09-29T08:14:27;97938.31;;;12.09;69.78
72855;BME280;60991;51.278;22.550;2022-09-29T08:15:59;97944.16;;;12.11;70.20
72855;BME280;60991;51.278;22.550;2022-09-29T08:17:29;97951.84;;;12.13;70.66
72855;BME280;60991;51.278;22.550;2022-09-29T08:19:00;97943.66;;;12.09;70.29
72855;BME280;60991;51.278;22.550;2022-09-29T08:20:31;97951.41;;;12.06;70.58
72855;BME280;60991;51.278;22.550;2022-09-29T08:22:01;97961.66;;;12.18;69.89
72855;BME280;60991;51.278;22.550;2022-09-29T08:23:38;97962.72;;;12.17;70.09
72855;BME280;60991;51.278;22.550;2022-09-29T08:25:09;97963.75;;;12.21;70.64
72855;BME280;60991;51.278;22.550;2022-09-29T08:26:39;97967.72;;;12.23;70.46
72855;BME280;60991;51.278;22.550;2022-09-29T08:28:09;97968.72;;;12.27;70.78
72855;BME280;60991;51.278;22.550;2022-09-29T08:29:39;97966.34;;;12.26;70.60
72855;BME280;60991;51.278;22.550;2022-09-29T08:31:12;97966.66;;;12.24;71.07